Time;durP1;ratioP1;P1;durP2;ratioP2;P2;SDS_P1;SDS_P2;PMS_P1;PMS_P2;Temp;Humidity;BMP_temperature;BMP_pressure;BME280_temperature;BME280_humidity;BME280_pressure;Samples;Min_cycle;Max_cycle;Signal;HPM_P1;HPM_P2
2022/07/06 00:00:46;;;;;;;4.90;3.60;;;;;;;;;;108624;1263;33903;-41
2022/07/06 00:03:21;;;;;;;4.50;3.20;;;;;;;;;;108642;1256;34100;-40
2022/07/06 00:05:53;;;;;;;4.80;3.40;;;;;;;;;;108621;1256;35400;-41
2022/07/06 00:08:26;;;;;;;4.00;3.10;;;;;;;;;;108651;1263;33600;-41
2022/07/06 00:11:02;;;;;;;4.70;3.30;;;;;;;;;;108615;1263;33444;-40
2022/07/06 00:13:32;;;;;;;;;;;;;;;;;;108642;1256;33858;-41
2022/07/06 00:16:10;;;;;;;4.40;3.30;;;;;;;;;;108620;1263;33436;-43
2022/07/06 00:18:43;;;;;;;4.90;3.40;;;;;;;;;;108637;1256;33360;-41
2022/07/06 00:21:16;;;;;;;4.00;3.20;;;;;;;;;;108605;1263;33293;-42
2022/07/06 00:23:48;;;;;;;4.50;3.30;;;;;;;;;;108660;1257;33870;-41
2022/07/06 00:26:22;;;;;;;4.90;3.10;;;;;;;;;;108663;1255;33544;-41
2022/07/06 00:28:57;;;;;;;;;;;;;;;;;;108660;1257;33558;-41
2022/07/06 00:31:30;;;;;;;4.60;3.20;;;;;;;;;;108620;1263;32936;-41
2022/07/06 00:34:02;;;;;;;5.10;3.40;;;;;;;;;;108662;1256;33519;-41
2022/07/06 00:36:34;;;;;;;4.60;3.50;;;;;;;;;;108653;1257;35394;-41
2022/07/06 00:39:07;;;;;;;4.50;3.30;;;;;;;;;;108644;1263;34188;-41
2022/07/06 00:41:40;;;;;;;4.40;2.80;;;;;;;;;;108657;1263;33352;-41
2022/07/06 00:44:12;;;;;;;5.40;3.30;;;;;;;;;;108655;1256;34285;-42
2022/07/06 00:46:46;;;;;;;5.70;3.20;;;;;;;;;;108658;1263;33286;-41
2022/07/06 00:52:11;;;;;;;4.70;3.00;;;;;;;;;;108663;1263;34896;-41
2022/07/06 00:54:45;;;;;;;3.90;2.80;;;;;;;;;;108624;1256;33320;-41
2022/07/06 00:57:20;;;;;;;4.40;2.70;;;;;;;;;;108653;1256;33772;-41
2022/07/06 00:59:55;;;;;;;4.50;3.10;;;;;;;;;;108611;1263;33106;-42
2022/07/06 01:02:26;;;;;;;;;;;;;;;;;;108615;1257;34028;-42
2022/07/06 01:04:58;;;;;;;4.40;3.10;;;;;;;;;;108652;1256;33354;-41
2022/07/06 01:07:35;;;;;;;4.70;2.80;;;;;;;;;;108635;1257;33795;-41
2022/07/06 01:10:10;;;;;;;4.00;2.90;;;;;;;;;;108654;1256;33638;-41
2022/07/06 01:12:47;;;;;;;4.20;3.20;;;;;;;;;;108677;1263;33623;-41
2022/07/06 01:15:22;;;;;;;3.90;2.90;;;;;;;;;;108605;1257;33781;-42
2022/07/06 01:17:57;;;;;;;4.00;2.90;;;;;;;;;;108656;1256;33002;-41
2022/07/06 01:20:33;;;;;;;5.00;3.00;;;;;;;;;;108639;1258;33738;-41
2022/07/06 01:23:05;;;;;;;4.30;2.80;;;;;;;;;;108617;1256;33451;-42
2022/07/06 01:25:37;;;;;;;4.50;3.10;;;;;;;;;;108660;1263;33370;-42
2022/07/06 01:28:10;;;;;;;5.30;3.40;;;;;;;;;;108655;1256;33852;-42
2022/07/06 01:30:42;;;;;;;4.50;3.20;;;;;;;;;;108637;1256;33855;-41
2022/07/06 01:33:17;;;;;;;4.90;3.20;;;;;;;;;;108650;1256;33409;-43
2022/07/06 01:35:53;;;;;;;5.10;3.40;;;;;;;;;;108675;1261;35002;-41
2022/07/06 01:38:27;;;;;;;4.60;3.10;;;;;;;;;;108644;1256;34398;-41
2022/07/06 01:41:00;;;;;;;4.30;2.90;;;;;;;;;;108636;1263;33745;-42
2022/07/06 01:43:33;;;;;;;5.20;2.90;;;;;;;;;;108644;1256;33264;-41
2022/07/06 01:46:08;;;;;;;4.40;3.10;;;;;;;;;;108654;1257;34689;-40
2022/07/06 01:48:42;;;;;;;4.40;3.20;;;;;;;;;;108641;1261;33365;-41
2022/07/06 01:51:15;;;;;;;5.00;3.00;;;;;;;;;;108627;1256;33872;-41
2022/07/06 01:53:48;;;;;;;4.20;2.60;;;;;;;;;;108608;1263;33664;-41
2022/07/06 01:56:21;;;;;;;4.30;2.90;;;;;;;;;;108631;1263;33720;-43
2022/07/06 01:58:54;;;;;;;6.00;2.80;;;;;;;;;;108662;1257;33346;-41
2022/07/06 02:01:26;;;;;;;4.80;3.00;;;;;;;;;;108668;1263;34128;-42
2022/07/06 02:03:58;;;;;;;3.60;2.60;;;;;;;;;;108623;1261;33521;-41
2022/07/06 02:06:30;;;;;;;4.20;2.90;;;;;;;;;;108677;1257;33357;-41
2022/07/06 02:09:02;;;;;;;;;;;;;;;;;;108642;1258;33326;-40
2022/07/06 02:11:36;;;;;;;4.30;3.00;;;;;;;;;;108654;1256;33483;-42
2022/07/06 02:14:09;;;;;;;4.00;2.80;;;;;;;;;;108667;1257;33425;-42
2022/07/06 02:16:42;;;;;;;5.60;3.00;;;;;;;;;;108657;1263;33395;-41
2022/07/06 02:19:14;;;;;;;5.00;2.90;;;;;;;;;;108613;1256;33847;-41
2022/07/06 02:21:46;;;;;;;4.50;3.10;;;;;;;;;;108619;1263;33748;-42
2022/07/06 02:24:19;;;;;;;4.60;3.00;;;;;;;;;;108664;1263;34692;-42
2022/07/06 02:26:51;;;;;;;4.20;3.00;;;;;;;;;;108535;1260;33403;-41
2022/07/06 02:29:25;;;;;;;4.50;2.90;;;;;;;;;;108657;1256;34186;-40
2022/07/06 02:31:58;;;;;;;4.90;3.20;;;;;;;;;;108667;1263;33860;-41
2022/07/06 02:34:30;;;;;;;4.20;2.90;;;;;;;;;;108624;1263;33604;-40
2022/07/06 02:37:04;;;;;;;4.70;3.00;;;;;;;;;;108635;1257;33779;-41
2022/07/06 02:39:37;;;;;;;5.40;2.90;;;;;;;;;;108660;1257;33764;-41
2022/07/06 02:42:12;;;;;;;3.80;2.70;;;;;;;;;;108675;1256;35395;-41
2022/07/06 02:44:45;;;;;;;4.40;3.00;;;;;;;;;;108674;1263;34243;-41
2022/07/06 02:47:18;;;;;;;4.20;2.80;;;;;;;;;;108669;1256;33751;-40
2022/07/06 02:49:50;;;;;;;5.80;3.00;;;;;;;;;;108640;1256;33892;-41
2022/07/06 02:52:23;;;;;;;4.00;2.90;;;;;;;;;;108662;1256;35687;-42
2022/07/06 02:54:58;;;;;;;4.40;3.00;;;;;;;;;;108582;1263;33795;-41
2022/07/06 02:57:31;;;;;;;4.70;3.40;;;;;;;;;;108639;1263;33407;-41
2022/07/06 03:00:10;;;;;;;5.50;3.00;;;;;;;;;;108638;1257;33932;-41
2022/07/06 03:02:43;;;;;;;4.20;2.80;;;;;;;;;;108662;1256;33887;-42
2022/07/06 03:05:16;;;;;;;3.90;2.90;;;;;;;;;;108655;1257;33454;-41
2022/07/06 03:07:54;;;;;;;4.30;2.90;;;;;;;;;;108652;1263;34214;-41
2022/07/06 03:10:26;;;;;;;4.10;2.90;;;;;;;;;;108668;1256;33573;-41
2022/07/06 03:12:59;;;;;;;3.80;2.60;;;;;;;;;;108638;1263;33390;-41
2022/07/06 03:15:32;;;;;;;4.40;3.00;;;;;;;;;;108617;1263;33144;-41
2022/07/06 03:18:04;;;;;;;3.80;2.60;;;;;;;;;;108660;1263;33662;-41
2022/07/06 03:20:38;;;;;;;4.60;2.70;;;;;;;;;;108653;1263;34189;-41
2022/07/06 03:23:10;;;;;;;3.90;3.00;;;;;;;;;;108639;1256;35909;-42
2022/07/06 03:25:43;;;;;;;4.90;3.40;;;;;;;;;;108656;1260;33319;-41
2022/07/06 03:28:17;;;;;;;3.80;2.80;;;;;;;;;;108627;1257;33470;-42
2022/07/06 03:30:49;;;;;;;4.40;3.00;;;;;;;;;;108612;1263;33394;-40
2022/07/06 03:33:22;;;;;;;4.10;2.80;;;;;;;;;;108625;1263;35552;-42
2022/07/06 03:35:54;;;;;;;4.50;2.80;;;;;;;;;;108639;1263;34132;-41
2022/07/06 03:38:28;;;;;;;4.60;3.10;;;;;;;;;;108579;1263;35173;-41
2022/07/06 03:41:00;;;;;;;4.00;3.10;;;;;;;;;;108654;1257;33770;-41
2022/07/06 03:43:33;;;;;;;5.50;2.90;;;;;;;;;;108645;1256;33801;-42
2022/07/06 03:46:10;;;;;;;4.20;2.90;;;;;;;;;;108639;1263;34214;-42
2022/07/06 03:48:42;;;;;;;4.50;3.00;;;;;;;;;;108644;1256;33591;-41
2022/07/06 03:51:14;;;;;;;5.20;3.30;;;;;;;;;;108651;1257;33882;-40
2022/07/06 03:53:47;;;;;;;4.50;2.90;;;;;;;;;;108651;1256;34059;-42
2022/07/06 03:56:29;;;;;;;4.30;2.90;;;;;;;;;;108617;1258;35238;-42
2022/07/06 03:59:04;;;;;;;4.40;3.00;;;;;;;;;;108694;1257;33745;-41
2022/07/06 04:01:38;;;;;;;4.20;2.70;;;;;;;;;;108619;1263;33846;-40
2022/07/06 04:04:11;;;;;;;3.70;2.80;;;;;;;;;;108612;1256;35435;-40
2022/07/06 04:06:44;;;;;;;4.40;2.90;;;;;;;;;;108610;1260;33613;-42
2022/07/06 04:09:17;;;;;;;4.40;2.90;;;;;;;;;;108620;1261;33593;-41
2022/07/06 04:11:50;;;;;;;4.60;2.70;;;;;;;;;;108626;1263;35308;-41
2022/07/06 04:14:21;;;;;;;;;;;;;;;;;;108666;1260;33786;-42
2022/07/06 04:16:54;;;;;;;5.60;3.00;;;;;;;;;;108633;1256;33106;-43
2022/07/06 04:19:26;;;;;;;4.10;2.70;;;;;;;;;;108636;1263;33674;-41
2022/07/06 04:21:59;;;;;;;4.20;3.00;;;;;;;;;;108678;1261;33310;-41
2022/07/06 04:24:32;;;;;;;4.90;2.80;;;;;;;;;;108630;1263;33623;-41
2022/07/06 04:27:09;;;;;;;4.60;3.00;;;;;;;;;;108654;1263;33418;-41
2022/07/06 04:29:44;;;;;;;4.40;3.00;;;;;;;;;;108698;1263;33609;-41
2022/07/06 04:32:19;;;;;;;4.70;3.10;;;;;;;;;;108644;1263;33398;-41
2022/07/06 04:34:51;;;;;;;5.00;2.80;;;;;;;;;;108612;1257;33803;-41
2022/07/06 04:37:24;;;;;;;4.90;3.10;;;;;;;;;;108653;1256;33156;-42
2022/07/06 04:39:57;;;;;;;4.40;2.80;;;;;;;;;;108636;1257;33661;-42
2022/07/06 04:42:30;;;;;;;4.50;2.70;;;;;;;;;;108665;1258;33540;-41
2022/07/06 04:45:04;;;;;;;5.20;2.90;;;;;;;;;;108612;1256;33881;-43
2022/07/06 04:47:37;;;;;;;4.30;2.90;;;;;;;;;;108636;1256;33595;-43
2022/07/06 04:50:11;;;;;;;3.90;2.80;;;;;;;;;;108657;1256;34628;-41
2022/07/06 04:52:43;;;;;;;4.70;3.10;;;;;;;;;;108714;1263;33392;-43
2022/07/06 04:55:16;;;;;;;3.70;2.60;;;;;;;;;;108604;1256;33680;-42
2022/07/06 04:57:48;;;;;;;4.00;2.80;;;;;;;;;;108612;1260;33064;-42
2022/07/06 05:00:24;;;;;;;5.40;2.90;;;;;;;;;;108647;1257;33709;-41
2022/07/06 05:02:57;;;;;;;4.80;2.90;;;;;;;;;;108636;1263;33576;-41
2022/07/06 05:05:32;;;;;;;4.50;3.00;;;;;;;;;;108660;1258;33870;-41
2022/07/06 05:08:05;;;;;;;4.60;2.90;;;;;;;;;;108650;1257;33568;-42
2022/07/06 05:10:37;;;;;;;5.30;3.10;;;;;;;;;;108611;1263;33726;-41
2022/07/06 05:13:13;;;;;;;4.00;3.10;;;;;;;;;;108550;1265;33690;-42
2022/07/06 05:15:45;;;;;;;4.40;3.10;;;;;;;;;;108645;1260;33722;-40
2022/07/06 05:18:18;;;;;;;4.20;3.10;;;;;;;;;;108625;1257;33866;-42
2022/07/06 05:20:51;;;;;;;4.70;3.50;;;;;;;;;;108596;1263;34413;-41
2022/07/06 05:23:23;;;;;;;4.20;3.10;;;;;;;;;;108638;1257;35297;-41
2022/07/06 05:25:59;;;;;;;4.20;2.80;;;;;;;;;;108648;1256;33862;-42
2022/07/06 05:28:31;;;;;;;4.40;3.40;;;;;;;;;;108633;1257;33202;-40
2022/07/06 05:31:04;;;;;;;5.30;3.20;;;;;;;;;;108645;1263;35164;-41
2022/07/06 05:33:36;;;;;;;4.40;3.10;;;;;;;;;;108640;1256;33454;-41
2022/07/06 05:36:17;;;;;;;5.50;3.10;;;;;;;;;;108613;1261;33743;-41
2022/07/06 05:38:49;;;;;;;3.70;2.60;;;;;;;;;;108647;1256;33908;-43
2022/07/06 05:41:21;;;;;;;4.10;3.00;;;;;;;;;;108633;1263;33676;-42
2022/07/06 05:43:54;;;;;;;4.90;3.20;;;;;;;;;;108651;1261;33831;-41
2022/07/06 05:46:28;;;;;;;5.50;3.10;;;;;;;;;;108667;1256;33923;-42
2022/07/06 05:51:53;;;;;;;4.60;3.40;;;;;;;;;;108647;1257;33663;-42
2022/07/06 05:54:26;;;;;;;5.70;3.00;;;;;;;;;;108664;1263;34025;-41
2022/07/06 05:56:58;;;;;;;6.00;3.00;;;;;;;;;;108694;1260;33388;-41
2022/07/06 05:59:33;;;;;;;4.50;3.30;;;;;;;;;;108667;1263;33986;-40
2022/07/06 06:02:07;;;;;;;4.30;2.90;;;;;;;;;;108646;1263;34134;-41
2022/07/06 06:04:39;;;;;;;4.40;3.10;;;;;;;;;;108657;1264;33145;-42
2022/07/06 06:07:12;;;;;;;4.40;3.40;;;;;;;;;;108635;1257;34391;-41
2022/07/06 06:09:47;;;;;;;4.70;3.30;;;;;;;;;;108633;1263;33129;-42
2022/07/06 06:12:19;;;;;;;4.40;3.00;;;;;;;;;;108634;1264;33693;-41
2022/07/06 06:14:52;;;;;;;4.70;3.10;;;;;;;;;;108620;1263;34811;-43
2022/07/06 06:17:24;;;;;;;5.60;2.80;;;;;;;;;;108652;1260;33376;-42
2022/07/06 06:19:56;;;;;;;4.50;2.90;;;;;;;;;;108659;1261;33710;-41
2022/07/06 06:22:28;;;;;;;5.20;3.50;;;;;;;;;;108620;1256;33733;-41
2022/07/06 06:25:01;;;;;;;4.50;3.00;;;;;;;;;;108636;1264;33587;-41
2022/07/06 06:27:34;;;;;;;4.20;3.00;;;;;;;;;;108662;1257;33771;-42
2022/07/06 06:30:11;;;;;;;4.80;3.00;;;;;;;;;;108639;1263;33382;-42
2022/07/06 06:32:44;;;;;;;4.70;3.10;;;;;;;;;;108635;1263;33160;-41
2022/07/06 06:35:19;;;;;;;4.20;2.80;;;;;;;;;;108372;1263;353244;-41
2022/07/06 06:37:54;;;;;;;5.10;3.10;;;;;;;;;;108586;1264;35484;-42
2022/07/06 06:40:30;;;;;;;6.20;3.30;;;;;;;;;;108646;1263;33839;-42
2022/07/06 06:43:05;;;;;;;4.20;2.80;;;;;;;;;;108640;1263;33779;-42
2022/07/06 06:45:38;;;;;;;5.10;3.00;;;;;;;;;;108674;1263;33637;-41
2022/07/06 06:48:10;;;;;;;5.00;3.00;;;;;;;;;;108668;1263;33954;-42
2022/07/06 06:50:42;;;;;;;4.70;3.10;;;;;;;;;;109077;1246;33990;-36
2022/07/06 06:53:15;;;;;;;8.60;4.00;;;;;;;;;;108516;1257;33767;-39
2022/07/06 06:55:47;;;;;;;8.30;4.30;;;;;;;;;;108531;1259;33271;-36
2022/07/06 06:58:19;;;;;;;8.40;3.90;;;;;;;;;;108552;1265;34002;-35
2022/07/06 07:00:51;;;;;;;10.50;4.40;;;;;;;;;;108514;1257;34021;-36
2022/07/06 07:03:24;;;;;;;9.90;4.40;;;;;;;;;;108545;1260;34144;-35
2022/07/06 07:05:56;;;;;;;8.20;3.60;;;;;;;;;;108558;1260;33732;-45
2022/07/06 07:08:28;;;;;;;8.20;4.00;;;;;;;;;;108528;1265;34221;-42
2022/07/06 07:11:00;;;;;;;12.10;4.80;;;;;;;;;;108531;1257;33748;-44
2022/07/06 07:13:35;;;;;;;8.70;3.80;;;;;;;;;;108553;1262;34105;-41
2022/07/06 07:16:10;;;;;;;7.00;3.60;;;;;;;;;;108591;1266;34112;-40
2022/07/06 07:18:42;;;;;;;8.00;5.20;;;;;;;;;;108554;1265;33679;-40
2022/07/06 07:21:15;;;;;;;6.50;4.10;;;;;;;;;;108579;1264;34463;-40
2022/07/06 07:23:48;;;;;;;6.20;3.50;;;;;;;;;;108534;1259;33884;-41
2022/07/06 07:26:21;;;;;;;7.20;4.20;;;;;;;;;;108554;1265;34568;-42
2022/07/06 07:28:53;;;;;;;7.30;3.30;;;;;;;;;;108518;1262;34138;-42
2022/07/06 07:31:25;;;;;;;7.30;3.50;;;;;;;;;;108476;1257;33811;-49
2022/07/06 07:33:58;;;;;;;6.80;3.30;;;;;;;;;;108505;1265;35325;-42
2022/07/06 07:36:31;;;;;;;7.10;4.00;;;;;;;;;;108497;1266;33583;-40
2022/07/06 07:39:04;;;;;;;5.60;3.70;;;;;;;;;;108501;1265;35989;-38
2022/07/06 07:41:36;;;;;;;6.60;3.90;;;;;;;;;;108604;1266;33242;-42
2022/07/06 07:44:08;;;;;;;5.80;3.00;;;;;;;;;;108539;1263;34032;-44
2022/07/06 07:46:41;;;;;;;5.60;2.90;;;;;;;;;;108529;1265;33994;-45
2022/07/06 07:49:13;;;;;;;6.60;3.30;;;;;;;;;;108560;1260;34778;-45
2022/07/06 07:51:46;;;;;;;;;;;;;;;;;;108558;1257;33863;-41
2022/07/06 07:54:18;;;;;;;7.30;3.50;;;;;;;;;;110325;1263;31760;-44
2022/07/06 07:56:51;;;;;;;6.30;3.60;;;;;;;;;;110262;1264;31306;-43
2022/07/06 07:59:23;;;;;;;7.60;3.50;;;;;;;;;;110278;1256;30739;-43
2022/07/06 08:01:56;;;;;;;7.50;3.20;;;;;;;;;;110297;1264;31978;-43
2022/07/06 08:04:28;;;;;;;6.20;3.20;;;;;;;;;;109249;1264;34023;-42
2022/07/06 08:07:02;;;;;;;7.30;3.30;;;;;;;;;;108384;1256;33955;-42
2022/07/06 08:09:34;;;;;;;5.60;2.90;;;;;;;;;;108491;1263;33419;-41
2022/07/06 08:12:08;;;;;;;8.40;3.50;;;;;;;;;;108544;1263;33775;-41
2022/07/06 08:14:40;;;;;;;6.20;2.90;;;;;;;;;;108525;1257;33599;-40
2022/07/06 08:17:13;;;;;;;6.30;3.10;;;;;;;;;;108549;1256;33531;-40
2022/07/06 08:19:45;;;;;;;4.90;2.90;;;;;;;;;;108737;1263;33589;-39
2022/07/06 08:22:17;;;;;;;8.40;3.50;;;;;;;;;;108702;1256;32175;-38
2022/07/06 08:24:50;;;;;;;6.20;2.80;;;;;;;;;;108551;1264;34492;-39
2022/07/06 08:27:22;;;;;;;7.40;3.00;;;;;;;;;;108555;1264;34513;-37
2022/07/06 08:29:54;;;;;;;7.00;3.20;;;;;;;;;;108553;1256;33863;-37
2022/07/06 08:32:27;;;;;;;6.80;3.20;;;;;;;;;;108570;1258;33892;-37
2022/07/06 08:34:59;;;;;;;5.90;3.00;;;;;;;;;;108533;1257;33813;-37
2022/07/06 08:37:32;;;;;;;6.70;2.90;;;;;;;;;;108564;1264;34142;-37
2022/07/06 08:40:05;;;;;;;7.20;3.00;;;;;;;;;;108564;1264;36445;-37
2022/07/06 08:42:38;;;;;;;6.50;3.40;;;;;;;;;;108559;1257;33874;-38
2022/07/06 08:45:11;;;;;;;5.10;2.70;;;;;;;;;;108552;1264;33654;-38
2022/07/06 08:47:44;;;;;;;7.20;2.80;;;;;;;;;;108581;1258;33818;-37
2022/07/06 08:50:16;;;;;;;4.50;2.80;;;;;;;;;;108554;1256;33857;-37
2022/07/06 08:52:50;;;;;;;4.60;2.80;;;;;;;;;;108564;1264;33827;-37
2022/07/06 08:55:22;;;;;;;4.60;2.40;;;;;;;;;;108523;1256;33381;-37
2022/07/06 08:57:54;;;;;;;5.00;2.20;;;;;;;;;;108586;1257;33349;-37
2022/07/06 09:00:27;;;;;;;4.80;2.80;;;;;;;;;;108546;1263;33868;-37
2022/07/06 09:02:59;;;;;;;5.60;2.40;;;;;;;;;;108601;1264;33098;-37
2022/07/06 09:05:31;;;;;;;5.30;2.40;;;;;;;;;;108549;1264;32951;-36
2022/07/06 09:08:05;;;;;;;5.10;2.00;;;;;;;;;;108576;1263;33733;-37
2022/07/06 09:10:40;;;;;;;3.80;1.80;;;;;;;;;;108573;1257;33855;-37
2022/07/06 09:13:13;;;;;;;4.80;2.00;;;;;;;;;;108566;1261;33705;-37
2022/07/06 09:15:45;;;;;;;4.00;2.00;;;;;;;;;;108565;1261;33726;-37
2022/07/06 09:18:18;;;;;;;3.00;1.60;;;;;;;;;;108562;1264;33563;-37
2022/07/06 09:20:50;;;;;;;4.30;1.90;;;;;;;;;;108571;1256;33647;-37
2022/07/06 09:23:25;;;;;;;4.90;1.70;;;;;;;;;;108558;1264;34207;-38
2022/07/06 09:25:57;;;;;;;4.90;1.80;;;;;;;;;;108563;1256;33902;-38
2022/07/06 09:28:43;;;;;;;4.50;1.60;;;;;;;;;;108527;1264;33432;-38
2022/07/06 09:31:15;;;;;;;3.20;1.60;;;;;;;;;;108609;1263;33679;-38
2022/07/06 09:34:01;;;;;;;3.80;1.60;;;;;;;;;;108582;1263;33202;-38
2022/07/06 09:36:48;;;;;;;2.70;1.30;;;;;;;;;;108590;1264;35231;-38
2022/07/06 09:39:23;;;;;;;3.30;1.40;;;;;;;;;;108587;1257;34714;-38
2022/07/06 09:41:57;;;;;;;3.20;1.30;;;;;;;;;;108572;1264;33619;-38
2022/07/06 09:44:31;;;;;;;2.70;1.30;;;;;;;;;;108583;1263;34418;-38
2022/07/06 09:47:07;;;;;;;3.30;1.40;;;;;;;;;;108585;1264;33786;-39
2022/07/06 09:49:40;;;;;;;2.20;1.10;;;;;;;;;;108565;1257;33216;-40
2022/07/06 09:52:13;;;;;;;3.80;1.20;;;;;;;;;;108579;1263;33611;-40
2022/07/06 09:54:49;;;;;;;3.30;1.20;;;;;;;;;;108572;1261;33338;-39
2022/07/06 09:57:23;;;;;;;3.20;1.30;;;;;;;;;;108587;1257;33879;-40
2022/07/06 09:59:56;;;;;;;2.60;1.10;;;;;;;;;;108564;1264;33881;-39
2022/07/06 10:02:28;;;;;;;2.40;1.10;;;;;;;;;;108538;1267;33661;-39
2022/07/06 10:05:01;;;;;;;2.80;1.20;;;;;;;;;;108605;1257;33843;-38
2022/07/06 10:07:33;;;;;;;2.70;1.20;;;;;;;;;;108590;1263;33380;-37
2022/07/06 10:10:07;;;;;;;2.10;0.90;;;;;;;;;;108540;1257;33376;-37
2022/07/06 10:12:40;;;;;;;2.70;1.20;;;;;;;;;;108574;1263;33676;-37
2022/07/06 10:15:12;;;;;;;2.50;1.00;;;;;;;;;;108573;1258;33432;-37
2022/07/06 10:17:45;;;;;;;2.50;1.00;;;;;;;;;;108548;1263;33880;-37
2022/07/06 10:20:17;;;;;;;2.70;1.10;;;;;;;;;;108530;1264;33960;-37
2022/07/06 10:22:50;;;;;;;1.60;0.90;;;;;;;;;;108568;1264;33406;-37
2022/07/06 10:25:24;;;;;;;2.80;1.10;;;;;;;;;;108578;1263;33724;-37
2022/07/06 10:27:57;;;;;;;2.40;1.10;;;;;;;;;;108582;1264;34317;-37
2022/07/06 10:30:28;;;;;;;;;;;;;;;;;;108600;1263;33590;-37
2022/07/06 10:33:01;;;;;;;3.40;1.20;;;;;;;;;;108570;1264;33628;-37
2022/07/06 10:35:31;;;;;;;;;;;;;;;;;;108577;1256;34314;-36
2022/07/06 10:38:10;;;;;;;2.30;1.10;;;;;;;;;;108604;1263;33086;-36
2022/07/06 10:43:39;;;;;;;1.80;0.90;;;;;;;;;;108552;1264;34003;-36
2022/07/06 10:46:13;;;;;;;2.10;0.80;;;;;;;;;;108546;1264;35268;-36
2022/07/06 10:48:47;;;;;;;2.30;0.90;;;;;;;;;;108569;1264;33957;-36
2022/07/06 10:51:27;;;;;;;3.00;0.90;;;;;;;;;;108623;1256;33726;-37
2022/07/06 10:54:07;;;;;;;1.80;0.80;;;;;;;;;;108574;1257;34170;-37
2022/07/06 10:56:44;;;;;;;2.20;0.90;;;;;;;;;;108560;1256;33939;-37
2022/07/06 10:59:18;;;;;;;2.20;0.80;;;;;;;;;;108564;1264;33392;-37
2022/07/06 11:02:19;;;;;;;2.80;0.80;;;;;;;;;;108520;1263;33294;-35
2022/07/06 11:04:54;;;;;;;1.90;0.80;;;;;;;;;;108595;1264;33640;-37
2022/07/06 11:07:26;;;;;;;2.50;0.80;;;;;;;;;;108572;1264;33832;-36
2022/07/06 11:10:00;;;;;;;2.70;1.10;;;;;;;;;;108588;1258;33616;-36
2022/07/06 11:12:36;;;;;;;2.00;0.80;;;;;;;;;;108594;1264;33130;-35
2022/07/06 11:15:10;;;;;;;3.20;0.80;;;;;;;;;;108626;1264;33857;-35
2022/07/06 11:17:45;;;;;;;2.90;0.90;;;;;;;;;;108640;1263;33984;-34
2022/07/06 11:20:20;;;;;;;2.30;0.90;;;;;;;;;;108647;1264;33861;-34
2022/07/06 11:22:53;;;;;;;2.60;1.00;;;;;;;;;;108639;1264;34126;-34
2022/07/06 11:25:26;;;;;;;2.50;1.00;;;;;;;;;;108600;1256;33692;-36
2022/07/06 11:27:58;;;;;;;2.90;1.00;;;;;;;;;;108606;1264;33971;-36
2022/07/06 11:30:31;;;;;;;2.90;1.00;;;;;;;;;;108613;1257;34009;-34
2022/07/06 11:33:04;;;;;;;2.80;1.00;;;;;;;;;;108583;1264;35681;-35
2022/07/06 11:35:36;;;;;;;3.50;1.00;;;;;;;;;;108541;1264;33987;-37
2022/07/06 11:38:31;;;;;;;2.90;1.00;;;;;;;;;;108630;1263;33730;-36
2022/07/06 11:41:03;;;;;;;4.60;1.30;;;;;;;;;;108668;1263;33463;-36
2022/07/06 11:43:37;;;;;;;2.20;0.90;;;;;;;;;;108654;1263;34179;-35
2022/07/06 11:46:10;;;;;;;3.80;1.20;;;;;;;;;;108630;1263;33626;-40
2022/07/06 11:48:48;;;;;;;4.10;1.30;;;;;;;;;;108625;1264;33779;-37
2022/07/06 11:51:20;;;;;;;4.30;1.20;;;;;;;;;;108632;1257;33563;-34
2022/07/06 11:53:58;;;;;;;3.20;1.10;;;;;;;;;;108615;1263;33749;-33
2022/07/06 11:56:31;;;;;;;2.90;1.10;;;;;;;;;;108532;1257;33733;-38
2022/07/06 11:59:05;;;;;;;3.40;1.00;;;;;;;;;;108529;1258;33814;-38
2022/07/06 12:01:41;;;;;;;3.60;1.30;;;;;;;;;;108583;1264;33628;-35
2022/07/06 12:04:13;;;;;;;3.10;1.10;;;;;;;;;;108628;1262;33442;-35
2022/07/06 12:06:47;;;;;;;2.70;0.90;;;;;;;;;;108564;1264;33848;-36
2022/07/06 12:09:20;;;;;;;3.90;1.10;;;;;;;;;;108595;1264;33625;-36
2022/07/06 12:11:51;;;;;;;;;;;;;;;;;;108635;1257;33505;-35
2022/07/06 12:14:24;;;;;;;2.90;0.90;;;;;;;;;;108525;1262;33013;-36
2022/07/06 12:16:57;;;;;;;2.70;1.10;;;;;;;;;;108612;1257;33777;-36
2022/07/06 12:19:29;;;;;;;3.00;0.90;;;;;;;;;;108589;1258;33612;-36
2022/07/06 12:22:02;;;;;;;5.10;0.90;;;;;;;;;;108641;1264;34128;-36
2022/07/06 12:24:34;;;;;;;;;;;;;;;;;;108607;1260;33970;-37
2022/07/06 12:27:17;;;;;;;2.40;1.00;;;;;;;;;;108570;1264;33442;-37
2022/07/06 12:29:50;;;;;;;2.30;1.10;;;;;;;;;;108639;1264;34723;-35
2022/07/06 12:32:23;;;;;;;3.30;0.90;;;;;;;;;;108604;1264;34131;-36
2022/07/06 12:35:08;;;;;;;3.10;1.00;;;;;;;;;;108624;1257;33336;-40
2022/07/06 12:37:57;;;;;;;2.40;0.90;;;;;;;;;;108667;1258;33922;-36
2022/07/06 12:40:31;;;;;;;4.40;1.20;;;;;;;;;;108583;1256;33873;-36
2022/07/06 12:43:03;;;;;;;3.40;1.10;;;;;;;;;;108539;1257;34098;-36
2022/07/06 12:45:36;;;;;;;2.90;1.00;;;;;;;;;;108606;1257;33592;-35
2022/07/06 12:48:09;;;;;;;2.70;0.80;;;;;;;;;;108614;1263;34343;-35
2022/07/06 12:50:43;;;;;;;4.30;1.00;;;;;;;;;;108556;1257;33820;-37
2022/07/06 12:53:30;;;;;;;2.20;0.80;;;;;;;;;;108551;1260;33901;-37
2022/07/06 12:56:14;;;;;;;3.20;1.00;;;;;;;;;;108527;1263;35578;-37
2022/07/06 12:59:00;;;;;;;2.50;0.90;;;;;;;;;;108521;1266;35424;-36
2022/07/06 13:01:32;;;;;;;2.80;1.00;;;;;;;;;;108582;1263;33521;-38
2022/07/06 13:04:09;;;;;;;2.30;0.90;;;;;;;;;;108537;1262;33762;-35
2022/07/06 13:06:41;;;;;;;2.80;1.00;;;;;;;;;;108571;1265;33603;-35
2022/07/06 13:09:16;;;;;;;3.10;0.90;;;;;;;;;;108519;1260;33125;-39
2022/07/06 13:11:49;;;;;;;2.60;0.90;;;;;;;;;;108513;1265;34022;-36
2022/07/06 13:14:22;;;;;;;3.40;1.10;;;;;;;;;;108565;1265;35305;-36
2022/07/06 13:16:55;;;;;;;4.70;1.20;;;;;;;;;;108550;1263;34164;-36
2022/07/06 13:19:30;;;;;;;2.00;0.90;;;;;;;;;;108542;1264;35615;-37
2022/07/06 13:22:02;;;;;;;2.80;1.00;;;;;;;;;;108548;1266;33576;-37
2022/07/06 13:24:36;;;;;;;3.10;1.00;;;;;;;;;;108564;1265;33979;-37
2022/07/06 13:27:09;;;;;;;2.90;1.20;;;;;;;;;;108514;1257;34120;-37
2022/07/06 13:29:41;;;;;;;2.00;0.90;;;;;;;;;;108566;1262;33531;-37
2022/07/06 13:32:13;;;;;;;1.50;0.80;;;;;;;;;;108578;1265;33461;-37
2022/07/06 13:34:46;;;;;;;2.50;1.00;;;;;;;;;;108559;1258;33741;-37
2022/07/06 13:37:18;;;;;;;2.80;0.90;;;;;;;;;;108495;1257;33871;-37
2022/07/06 13:39:50;;;;;;;1.90;1.00;;;;;;;;;;108524;1258;33587;-37
2022/07/06 13:42:23;;;;;;;4.30;1.30;;;;;;;;;;108550;1265;33776;-37
2022/07/06 13:44:55;;;;;;;3.40;1.20;;;;;;;;;;108520;1265;33374;-37
2022/07/06 13:47:28;;;;;;;2.60;1.20;;;;;;;;;;108530;1257;33876;-37
2022/07/06 13:50:00;;;;;;;2.40;1.10;;;;;;;;;;108585;1258;33896;-37
2022/07/06 13:52:33;;;;;;;2.90;1.00;;;;;;;;;;108614;1264;33377;-37
2022/07/06 13:55:08;;;;;;;3.80;1.40;;;;;;;;;;108615;1264;33562;-37
2022/07/06 13:57:53;;;;;;;2.00;0.90;;;;;;;;;;108605;1258;33601;-37
2022/07/06 14:00:26;;;;;;;2.20;1.10;;;;;;;;;;108590;1264;33227;-37
2022/07/06 14:02:58;;;;;;;2.50;1.20;;;;;;;;;;108592;1257;33559;-37
2022/07/06 14:05:31;;;;;;;2.60;0.90;;;;;;;;;;108651;1257;33791;-37
2022/07/06 14:08:04;;;;;;;3.10;1.00;;;;;;;;;;108536;1263;35380;-36
2022/07/06 14:10:37;;;;;;;3.10;1.10;;;;;;;;;;108547;1257;33895;-37
2022/07/06 14:13:09;;;;;;;2.60;1.10;;;;;;;;;;108612;1260;33718;-37
2022/07/06 14:15:42;;;;;;;2.80;1.10;;;;;;;;;;108627;1257;33749;-37
2022/07/06 14:18:14;;;;;;;2.40;1.10;;;;;;;;;;108594;1264;33609;-37
2022/07/06 14:20:48;;;;;;;2.60;1.20;;;;;;;;;;108568;1264;33332;-37
2022/07/06 14:23:21;;;;;;;2.00;1.00;;;;;;;;;;108568;1258;35585;-37
2022/07/06 14:25:55;;;;;;;2.90;1.00;;;;;;;;;;108539;1264;33769;-37
2022/07/06 14:28:28;;;;;;;3.50;1.10;;;;;;;;;;108559;1264;33794;-37
2022/07/06 14:31:02;;;;;;;2.20;1.10;;;;;;;;;;108612;1263;33729;-37
2022/07/06 14:33:34;;;;;;;3.60;1.10;;;;;;;;;;108413;1256;320241;-37
2022/07/06 14:36:09;;;;;;;2.90;1.20;;;;;;;;;;108642;1258;33309;-37
2022/07/06 14:38:41;;;;;;;4.00;1.00;;;;;;;;;;108652;1258;33578;-37
2022/07/06 14:41:14;;;;;;;4.70;1.80;;;;;;;;;;108652;1264;34135;-36
2022/07/06 14:43:46;;;;;;;2.70;1.40;;;;;;;;;;108638;1256;33430;-37
2022/07/06 14:46:19;;;;;;;3.40;1.30;;;;;;;;;;108617;1257;34447;-37
2022/07/06 14:48:51;;;;;;;3.10;1.30;;;;;;;;;;108556;1263;33835;-36
2022/07/06 14:51:23;;;;;;;3.30;1.50;;;;;;;;;;108538;1257;33425;-37
2022/07/06 14:53:56;;;;;;;2.80;1.30;;;;;;;;;;108561;1258;33891;-36
2022/07/06 14:56:28;;;;;;;3.10;1.40;;;;;;;;;;108586;1258;33840;-37
2022/07/06 14:59:03;;;;;;;3.00;1.30;;;;;;;;;;108624;1264;33777;-36
2022/07/06 15:01:35;;;;;;;2.70;1.10;;;;;;;;;;108578;1263;33370;-37
2022/07/06 15:04:10;;;;;;;3.40;1.30;;;;;;;;;;108626;1257;33824;-37
2022/07/06 15:06:42;;;;;;;4.10;1.30;;;;;;;;;;108632;1257;33808;-37
2022/07/06 15:09:15;;;;;;;3.10;1.40;;;;;;;;;;108537;1258;33648;-37
2022/07/06 15:11:47;;;;;;;5.60;1.30;;;;;;;;;;108593;1264;35386;-36
2022/07/06 15:14:20;;;;;;;3.40;1.40;;;;;;;;;;108718;1256;33746;-37
2022/07/06 15:16:52;;;;;;;4.60;1.40;;;;;;;;;;108622;1257;33890;-37
2022/07/06 15:19:25;;;;;;;3.60;1.50;;;;;;;;;;108612;1261;34729;-36